createdAt,value
2018-02-10T00:01:25.257Z,3.70
2018-02-10T00:03:52.802Z,3.70
2018-02-10T00:06:20.356Z,3.70
2018-02-10T00:08:47.892Z,3.70
2018-02-10T00:11:15.438Z,3.70
2018-02-10T00:13:43.735Z,3.70
2018-02-10T00:16:11.291Z,3.70
2018-02-10T00:18:39.572Z,3.70
2018-02-10T00:21:07.115Z,3.70
2018-02-10T00:23:35.437Z,3.70
2018-02-10T00:26:02.993Z,3.70
2018-02-10T00:28:30.535Z,3.70
2018-02-10T00:30:58.085Z,3.70
2018-02-10T00:33:26.401Z,3.70
2018-02-10T00:35:53.943Z,3.60
2018-02-10T00:38:21.497Z,3.60
2018-02-10T00:40:49.016Z,3.70
2018-02-10T00:43:16.576Z,3.60
2018-02-10T00:45:44.101Z,3.60
2018-02-10T00:48:11.654Z,3.60
2018-02-10T00:50:39.314Z,3.60
2018-02-10T00:53:06.875Z,3.60
2018-02-10T00:55:34.402Z,3.50
2018-02-10T00:58:02.720Z,3.50
2018-02-10T01:00:30.258Z,3.50
2018-02-10T01:02:57.814Z,3.50
2018-02-10T01:05:25.348Z,3.50
2018-02-10T01:07:52.912Z,3.40
2018-02-10T01:10:20.433Z,3.40
2018-02-10T01:12:47.979Z,3.40
2018-02-10T01:15:15.496Z,3.40
2018-02-10T01:17:43.919Z,3.30
2018-02-10T01:20:12.219Z,3.30
2018-02-10T01:22:39.770Z,3.30
2018-02-10T01:25:08.085Z,3.20
2018-02-10T01:27:35.624Z,3.20
2018-02-10T01:30:03.222Z,3.20
2018-02-10T01:32:31.521Z,3.10
2018-02-10T01:35:00.942Z,3.10
2018-02-10T01:37:28.477Z,3.10
2018-02-10T01:39:56.027Z,3.10
2018-02-10T01:42:24.322Z,3.00
2018-02-10T01:44:51.867Z,3.00
2018-02-10T01:47:20.176Z,3.00
2018-02-10T01:49:47.728Z,3.00
2018-02-10T01:52:15.269Z,3.00
2018-02-10T01:54:43.636Z,2.90
2018-02-10T01:57:11.935Z,2.90
2018-02-10T01:59:39.528Z,2.80
2018-02-10T02:02:07.046Z,2.80
2018-02-10T02:04:34.616Z,2.80
2018-02-10T02:07:02.160Z,2.80
2018-02-10T02:09:30.516Z,2.80
2018-02-10T02:11:58.075Z,2.80
2018-02-10T02:14:25.608Z,2.70
2018-02-10T02:16:53.171Z,2.80
2018-02-10T02:19:20.695Z,2.70
2018-02-10T02:21:48.266Z,2.70
2018-02-10T02:24:15.835Z,2.70
2018-02-10T02:26:43.387Z,2.70
2018-02-10T02:29:10.906Z,2.70
2018-02-10T02:31:38.453Z,2.70
2018-02-10T02:34:05.989Z,2.70
2018-02-10T02:36:33.536Z,2.70
2018-02-10T02:39:01.072Z,2.70
2018-02-10T02:41:29.398Z,2.70
2018-02-10T02:43:56.923Z,2.70
2018-02-10T02:46:24.477Z,2.80
2018-02-10T02:48:52.040Z,2.70
2018-02-10T02:51:20.368Z,2.80
2018-02-10T02:53:47.903Z,2.70
2018-02-10T02:56:15.444Z,2.80
2018-02-10T02:58:42.981Z,2.70
2018-02-10T03:01:11.311Z,2.70
2018-02-10T03:03:38.860Z,2.70
2018-02-10T03:06:06.396Z,2.70
2018-02-10T03:08:34.679Z,2.70
2018-02-10T03:11:02.250Z,2.70
2018-02-10T03:13:29.787Z,2.70
2018-02-10T03:15:58.100Z,2.70
2018-02-10T03:18:25.635Z,2.70
2018-02-10T03:20:53.202Z,2.70
2018-02-10T03:23:20.750Z,2.80
2018-02-10T03:25:49.060Z,2.70
2018-02-10T03:28:16.579Z,2.70
2018-02-10T03:30:44.915Z,2.80
2018-02-10T03:33:12.455Z,2.70
2018-02-10T03:35:39.981Z,2.70
2018-02-10T03:38:08.306Z,2.70
2018-02-10T03:40:35.840Z,2.80
2018-02-10T03:43:03.403Z,2.80
2018-02-10T03:45:30.956Z,2.80
2018-02-10T03:47:58.508Z,2.80
2018-02-10T03:50:26.806Z,2.80
2018-02-10T03:52:54.352Z,2.70
2018-02-10T03:55:22.659Z,2.80
2018-02-10T03:57:50.215Z,2.80
2018-02-10T04:00:27.976Z,2.80
2018-02-10T04:02:56.320Z,2.80
2018-02-10T04:05:23.843Z,2.80
2018-02-10T04:07:51.392Z,2.80
2018-02-10T04:10:18.945Z,2.80
2018-02-10T04:12:47.268Z,2.80
2018-02-10T04:15:14.805Z,2.80
2018-02-10T04:17:42.343Z,2.80
2018-02-10T04:20:09.885Z,2.80
2018-02-10T04:22:37.469Z,2.80
2018-02-10T04:25:05.758Z,2.80
2018-02-10T04:27:33.315Z,2.80
2018-02-10T04:30:00.852Z,2.80
2018-02-10T04:32:29.170Z,2.80
2018-02-10T04:34:56.709Z,2.80
2018-02-10T04:37:25.043Z,2.80
2018-02-10T04:39:52.607Z,2.80
2018-02-10T04:42:20.161Z,2.80
2018-02-10T04:44:47.678Z,2.80
2018-02-10T04:47:15.228Z,2.80
2018-02-10T04:49:43.528Z,2.80
2018-02-10T04:52:11.078Z,2.80
2018-02-10T04:54:38.625Z,2.80
2018-02-10T04:57:06.935Z,2.80
2018-02-10T04:59:34.477Z,2.80
2018-02-10T05:02:02.064Z,2.80
2018-02-10T05:04:29.595Z,2.80
2018-02-10T05:06:57.172Z,2.80
2018-02-10T05:09:24.700Z,2.80
2018-02-10T05:11:53.024Z,2.80
2018-02-10T05:14:20.557Z,2.80
2018-02-10T05:16:48.128Z,2.90
2018-02-10T05:19:15.675Z,2.80
2018-02-10T05:21:43.228Z,2.80
2018-02-10T05:24:11.543Z,2.90
2018-02-10T05:26:39.089Z,2.90
2018-02-10T05:29:06.634Z,2.90
2018-02-10T05:31:34.199Z,2.90
2018-02-10T05:34:01.731Z,2.90
2018-02-10T05:36:29.263Z,2.90
2018-02-10T05:38:56.860Z,2.90
2018-02-10T05:41:25.165Z,2.90
2018-02-10T05:43:52.726Z,2.90
2018-02-10T05:46:41.730Z,2.90
2018-02-10T05:49:09.289Z,2.90
2018-02-10T05:51:36.826Z,2.90
2018-02-10T05:54:04.389Z,2.90
2018-02-10T05:56:31.927Z,2.90
2018-02-10T05:58:59.552Z,2.90
2018-02-10T06:01:27.081Z,2.90
2018-02-10T06:03:55.400Z,2.90
2018-02-10T06:06:23.713Z,2.90
2018-02-10T06:08:51.245Z,2.90
2018-02-10T06:11:19.554Z,3.00
2018-02-10T06:13:47.177Z,3.00
2018-02-10T06:16:14.715Z,3.00
2018-02-10T06:18:42.275Z,3.00
2018-02-10T06:21:09.796Z,3.00
2018-02-10T06:23:37.353Z,3.00
2018-02-10T06:26:04.875Z,3.00
2018-02-10T06:28:32.418Z,3.00
2018-02-10T06:30:59.954Z,3.00
2018-02-10T06:33:27.521Z,3.00
2018-02-10T06:35:55.886Z,3.00
2018-02-10T06:38:23.487Z,3.00
2018-02-10T06:40:50.995Z,3.00
2018-02-10T06:43:18.542Z,3.00
2018-02-10T06:45:46.089Z,3.00
2018-02-10T06:48:13.635Z,3.00
2018-02-10T06:50:41.176Z,3.00
2018-02-10T06:53:08.725Z,3.10
2018-02-10T06:55:36.269Z,3.00
2018-02-10T06:58:05.600Z,3.00
2018-02-10T07:00:33.223Z,3.10
2018-02-10T07:03:00.797Z,3.10
2018-02-10T07:05:38.652Z,3.10
2018-02-10T07:08:06.189Z,3.10
2018-02-10T07:10:33.720Z,3.10
2018-02-10T07:13:01.308Z,3.10
2018-02-10T07:15:28.925Z,3.10
2018-02-10T07:17:56.460Z,3.10
2018-02-10T07:20:24.777Z,3.10
2018-02-10T07:22:52.316Z,3.10
2018-02-10T07:25:19.876Z,3.10
2018-02-10T07:27:47.407Z,3.20
2018-02-10T07:30:15.012Z,3.20
2018-02-10T07:32:42.547Z,3.20
2018-02-10T07:35:11.908Z,3.20
2018-02-10T07:37:39.427Z,3.20
2018-02-10T07:40:06.981Z,3.30
2018-02-10T07:42:34.513Z,3.30
2018-02-10T07:45:02.075Z,3.30
2018-02-10T07:47:32.888Z,3.30
2018-02-10T07:50:00.424Z,3.30
2018-02-10T07:52:27.965Z,3.30
2018-02-10T07:54:55.669Z,3.40
2018-02-10T07:57:23.218Z,3.40
2018-02-10T07:59:50.786Z,3.40
2018-02-10T08:02:18.328Z,3.50
2018-02-10T08:04:45.877Z,3.50
2018-02-10T08:07:13.395Z,3.50
2018-02-10T08:09:40.997Z,3.50
2018-02-10T08:12:08.542Z,3.50
2018-02-10T08:14:36.174Z,3.50
2018-02-10T08:17:03.732Z,3.50
2018-02-10T08:19:31.345Z,3.60
2018-02-10T08:21:58.893Z,3.60
2018-02-10T08:24:27.201Z,3.60
2018-02-10T08:26:54.758Z,3.60
2018-02-10T08:29:22.296Z,3.70
2018-02-10T08:31:49.908Z,3.70
2018-02-10T08:34:17.641Z,3.70
2018-02-10T08:36:45.408Z,3.70
2018-02-10T08:39:13.079Z,3.70
2018-02-10T08:41:45.659Z,3.70
2018-02-10T08:44:13.248Z,3.80
2018-02-10T08:46:40.824Z,3.80
2018-02-10T08:49:08.370Z,3.80
2018-02-10T08:51:36.923Z,3.80
2018-02-10T08:54:06.407Z,3.90
2018-02-10T08:56:33.957Z,3.80
2018-02-10T08:59:02.303Z,3.90
2018-02-10T09:01:31.760Z,3.90
2018-02-10T09:04:00.051Z,3.90
2018-02-10T09:06:27.643Z,3.90
2018-02-10T09:08:55.163Z,3.90
2018-02-10T09:11:22.688Z,4.00
2018-02-10T09:13:51.000Z,4.00
2018-02-10T09:16:18.528Z,4.00
2018-02-10T09:18:46.848Z,4.00
2018-02-10T09:21:14.385Z,4.00
2018-02-10T09:23:42.696Z,4.10
2018-02-10T09:26:10.250Z,4.10
2018-02-10T09:28:37.795Z,4.10
2018-02-10T09:31:05.341Z,4.10
2018-02-10T09:33:33.904Z,4.20
2018-02-10T09:36:01.469Z,4.10
2018-02-10T09:38:32.446Z,4.20
2018-02-10T09:41:00.024Z,4.20
2018-02-10T09:43:28.613Z,4.20
2018-02-10T09:45:56.135Z,4.30
2018-02-10T09:48:28.146Z,4.30
2018-02-10T09:50:55.668Z,4.40
2018-02-10T09:53:27.829Z,4.40
2018-02-10T09:55:58.885Z,4.40
2018-02-10T09:58:26.430Z,4.50
2018-02-10T10:00:54.737Z,4.60
2018-02-10T10:03:22.304Z,4.60
2018-02-10T10:05:49.828Z,4.70
2018-02-10T10:08:33.020Z,4.80
2018-02-10T10:11:00.554Z,4.80
2018-02-10T10:13:28.147Z,4.90
2018-02-10T10:15:56.676Z,5.00
2018-02-10T10:18:24.207Z,5.00
2018-02-10T10:20:51.756Z,5.10
2018-02-10T10:23:19.283Z,5.10
2018-02-10T10:25:46.835Z,5.20
2018-02-10T10:28:14.358Z,5.30
2018-02-10T10:30:41.917Z,5.30
2018-02-10T10:33:10.208Z,5.40
2018-02-10T10:35:37.739Z,5.40
2018-02-10T10:38:06.089Z,5.50
2018-02-10T10:40:33.639Z,5.50
2018-02-10T10:43:01.164Z,5.60
2018-02-10T10:45:32.594Z,5.60
2018-02-10T10:48:00.123Z,5.60
2018-02-10T10:50:27.678Z,5.70
2018-02-10T10:52:55.203Z,5.70
2018-02-10T10:55:22.775Z,5.80
2018-02-10T10:57:50.312Z,5.90
2018-02-10T11:00:18.753Z,6.00
2018-02-10T11:02:46.284Z,6.00
2018-02-10T11:05:13.840Z,6.00
2018-02-10T11:07:41.395Z,6.10
2018-02-10T11:10:08.924Z,6.20
2018-02-10T11:12:36.471Z,6.20
2018-02-10T11:15:04.004Z,6.30
2018-02-10T11:17:31.550Z,6.30
2018-02-10T11:19:59.076Z,6.40
2018-02-10T11:22:27.400Z,6.50
2018-02-10T11:24:54.936Z,6.50
2018-02-10T11:27:22.480Z,6.50
2018-02-10T11:29:50.772Z,6.60
2018-02-10T11:32:18.325Z,6.60
2018-02-10T11:34:45.868Z,6.60
2018-02-10T11:37:14.187Z,6.60
2018-02-10T11:39:41.712Z,6.60
2018-02-10T11:42:10.036Z,6.70
2018-02-10T11:44:37.572Z,6.70
2018-02-10T11:47:05.128Z,6.70
2018-02-10T11:49:32.653Z,6.70
2018-02-10T11:52:00.193Z,6.70
2018-02-10T11:54:27.718Z,6.70
2018-02-10T11:56:55.266Z,6.70
2018-02-10T11:59:22.824Z,6.70
2018-02-10T12:01:50.382Z,6.80
2018-02-10T12:04:17.924Z,6.70
2018-02-10T12:06:46.253Z,6.80
2018-02-10T12:09:13.784Z,6.70
2018-02-10T12:11:54.046Z,6.70
2018-02-10T12:14:21.616Z,6.80
2018-02-10T12:16:49.160Z,6.70
2018-02-10T12:19:17.448Z,6.80
2018-02-10T12:21:45.008Z,6.80
2018-02-10T12:24:12.541Z,6.80
2018-02-10T12:26:40.084Z,6.90
2018-02-10T12:29:07.604Z,6.90
2018-02-10T12:31:35.172Z,6.80
2018-02-10T12:34:02.714Z,6.90
2018-02-10T12:36:30.275Z,6.90
2018-02-10T12:38:57.799Z,7.00
2018-02-10T12:41:25.356Z,7.00
2018-02-10T12:43:52.892Z,7.00
2018-02-10T12:46:20.441Z,7.00
2018-02-10T12:48:53.779Z,7.10
2018-02-10T12:51:21.300Z,7.10
2018-02-10T12:53:48.845Z,7.10
2018-02-10T12:56:16.394Z,7.10
2018-02-10T12:58:43.945Z,7.10
2018-02-10T13:01:12.235Z,7.10
2018-02-10T13:03:39.793Z,7.10
2018-02-10T13:06:07.347Z,7.20
2018-02-10T13:08:34.920Z,7.20
2018-02-10T13:11:02.442Z,7.20
2018-02-10T13:13:30.762Z,7.20
2018-02-10T13:15:58.299Z,7.20
2018-02-10T13:18:26.631Z,7.20
2018-02-10T13:20:54.176Z,7.20
2018-02-10T13:23:21.720Z,7.20
2018-02-10T13:25:49.263Z,7.20
2018-02-10T13:28:16.842Z,7.20
2018-02-10T13:30:44.377Z,7.20
2018-02-10T13:33:12.695Z,7.20
2018-02-10T13:35:40.233Z,7.20
2018-02-10T13:38:07.782Z,7.20
2018-02-10T13:40:36.084Z,7.20
2018-02-10T13:43:03.623Z,7.20
2018-02-10T13:45:31.150Z,7.20
2018-02-10T13:47:58.683Z,7.20
2018-02-10T13:50:26.221Z,7.20
2018-02-10T13:52:53.760Z,7.20
2018-02-10T13:55:22.052Z,7.20
2018-02-10T13:57:49.596Z,7.10
2018-02-10T14:00:17.973Z,7.20
2018-02-10T14:02:46.288Z,7.10
2018-02-10T14:05:13.808Z,7.10
2018-02-10T14:07:41.352Z,7.10
2018-02-10T14:10:08.900Z,7.10
2018-02-10T14:12:36.443Z,7.10
2018-02-10T14:15:03.989Z,7.00
2018-02-10T14:17:31.533Z,7.00
2018-02-10T14:19:59.062Z,7.00
2018-02-10T14:22:27.385Z,6.90
2018-02-10T14:24:54.907Z,6.90
2018-02-10T14:27:23.200Z,6.90
2018-02-10T14:29:51.528Z,6.90
2018-02-10T14:32:19.068Z,6.90
2018-02-10T14:34:46.617Z,6.90
2018-02-10T14:37:14.148Z,6.90
2018-02-10T14:39:42.465Z,6.80
2018-02-10T14:42:10.018Z,6.80
2018-02-10T14:44:37.578Z,6.80
2018-02-10T14:47:05.118Z,6.80
2018-02-10T14:49:32.670Z,6.70
2018-02-10T14:52:00.964Z,6.70
2018-02-10T14:54:28.526Z,6.60
2018-02-10T14:56:56.080Z,6.60
2018-02-10T14:59:23.649Z,6.60
2018-02-10T15:01:51.184Z,6.60
2018-02-10T15:04:19.487Z,6.50
2018-02-10T15:06:47.009Z,6.50
2018-02-10T15:09:14.568Z,6.50
2018-02-10T15:11:42.109Z,6.40
2018-02-10T15:14:09.656Z,6.40
2018-02-10T15:16:37.177Z,6.30
2018-02-10T15:19:05.509Z,6.30
2018-02-10T15:21:33.036Z,6.30
2018-02-10T15:24:00.603Z,6.30
2018-02-10T15:26:28.898Z,6.20
2018-02-10T15:28:56.664Z,6.20
2018-02-10T15:31:26.024Z,6.20
2018-02-10T15:34:06.251Z,6.10
2018-02-10T15:36:33.784Z,6.10
2018-02-10T15:39:01.332Z,6.10
2018-02-10T15:41:28.859Z,6.10
2018-02-10T15:43:57.260Z,6.00
2018-02-10T15:46:24.789Z,6.00
2018-02-10T15:48:53.102Z,6.00
2018-02-10T15:51:20.639Z,5.90
2018-02-10T15:53:48.955Z,5.90
2018-02-10T15:56:16.488Z,5.90
2018-02-10T15:58:44.029Z,5.90
2018-02-10T16:01:12.345Z,5.80
2018-02-10T16:03:39.893Z,5.80
2018-02-10T16:06:07.475Z,5.80
2018-02-10T16:08:35.032Z,5.80
2018-02-10T16:11:02.576Z,5.70
2018-02-10T16:13:30.124Z,5.70
2018-02-10T16:15:58.545Z,5.70
2018-02-10T16:18:26.066Z,5.70
2018-02-10T16:20:54.403Z,5.70
2018-02-10T16:23:21.932Z,5.60
2018-02-10T16:25:49.475Z,5.60
2018-02-10T16:28:17.960Z,5.60
2018-02-10T16:30:45.517Z,5.60
2018-02-10T16:33:13.056Z,5.60
2018-02-10T16:35:40.600Z,5.60
2018-02-10T16:38:08.139Z,5.60
2018-02-10T16:40:35.865Z,5.60
2018-02-10T16:43:03.432Z,5.60
2018-02-10T16:45:31.752Z,5.50
2018-02-10T16:47:59.274Z,5.50
2018-02-10T16:50:26.830Z,5.50
2018-02-10T16:52:54.355Z,5.50
2018-02-10T16:55:22.682Z,5.50
2018-02-10T16:57:50.205Z,5.40
2018-02-10T17:00:18.513Z,5.40
2018-02-10T17:02:46.036Z,5.40
2018-02-10T17:05:14.339Z,5.40
2018-02-10T17:07:41.876Z,5.40
2018-02-10T17:10:10.194Z,5.40
2018-02-10T17:12:37.733Z,5.40
2018-02-10T17:15:05.303Z,5.30
2018-02-10T17:17:32.845Z,5.30
2018-02-10T17:20:01.169Z,5.30
2018-02-10T17:22:28.718Z,5.30
2018-02-10T17:24:56.265Z,5.30
2018-02-10T17:27:23.787Z,5.30
2018-02-10T17:29:51.328Z,5.30
2018-02-10T17:32:19.057Z,5.30
2018-02-10T17:34:46.627Z,5.20
2018-02-10T17:37:14.171Z,5.20
2018-02-10T17:39:41.688Z,5.20
2018-02-10T17:42:09.240Z,5.20
2018-02-10T17:44:36.759Z,5.20
2018-02-10T17:47:04.304Z,5.20
2018-02-10T17:49:31.825Z,5.20
2018-02-10T17:51:59.368Z,5.10
2018-02-10T17:54:26.904Z,5.10
2018-02-10T17:56:54.450Z,5.10
2018-02-10T17:59:22.006Z,5.10
2018-02-10T18:01:49.565Z,5.10
2018-02-10T18:04:17.112Z,5.10
2018-02-10T18:06:45.435Z,5.10
2018-02-10T18:09:12.954Z,5.10
2018-02-10T18:11:40.528Z,5.10
2018-02-10T18:14:08.045Z,5.10
2018-02-10T18:16:35.567Z,5.00
2018-02-10T18:19:03.125Z,5.00
2018-02-10T18:21:30.736Z,5.00
2018-02-10T18:23:58.285Z,5.10
2018-02-10T18:26:25.814Z,5.00
2018-02-10T18:28:54.175Z,5.00
2018-02-10T18:31:21.713Z,5.00
2018-02-10T18:33:50.034Z,5.00
2018-02-10T18:36:17.604Z,5.00
2018-02-10T18:38:45.153Z,5.00
2018-02-10T18:41:12.689Z,4.90
2018-02-10T18:43:40.258Z,4.90
2018-02-10T18:46:07.854Z,5.00
2018-02-10T18:48:35.391Z,5.00
2018-02-10T18:51:02.937Z,4.90
2018-02-10T18:53:30.491Z,4.90
2018-02-10T18:55:58.117Z,4.90
2018-02-10T18:58:25.661Z,4.90
2018-02-10T19:00:53.180Z,4.90
2018-02-10T19:03:20.806Z,4.90
2018-02-10T19:05:48.323Z,4.90
2018-02-10T19:08:16.627Z,4.90
2018-02-10T19:10:44.209Z,4.90
2018-02-10T19:13:12.530Z,4.80
2018-02-10T19:15:43.688Z,4.80
2018-02-10T19:18:11.241Z,4.80
2018-02-10T19:20:39.722Z,4.80
2018-02-10T19:23:07.279Z,4.80
2018-02-10T19:25:34.845Z,4.80
2018-02-10T19:28:02.430Z,4.80
2018-02-10T19:30:30.302Z,4.80
2018-02-10T19:32:58.843Z,4.80
2018-02-10T19:35:26.403Z,4.80
2018-02-10T19:37:53.931Z,4.80
2018-02-10T19:40:21.490Z,4.80
2018-02-10T19:42:49.816Z,4.70
2018-02-10T19:45:17.431Z,4.70
2018-02-10T19:47:44.989Z,4.70
2018-02-10T19:50:13.328Z,4.70
2018-02-10T19:52:40.928Z,4.70
2018-02-10T19:55:08.473Z,4.70
2018-02-10T19:57:35.991Z,4.70
2018-02-10T20:00:03.583Z,4.70
2018-02-10T20:02:31.104Z,4.70
2018-02-10T20:04:58.661Z,4.70
2018-02-10T20:07:26.188Z,4.70
2018-02-10T20:09:53.717Z,4.70
2018-02-10T20:12:21.291Z,4.70
2018-02-10T20:14:48.818Z,4.70
2018-02-10T20:17:16.826Z,4.70
2018-02-10T20:19:45.180Z,4.70
2018-02-10T20:22:12.721Z,4.70
2018-02-10T20:24:40.256Z,4.70
2018-02-10T20:27:08.738Z,4.70
2018-02-10T20:29:36.296Z,4.70
2018-02-10T20:32:04.609Z,4.70
2018-02-10T20:34:32.131Z,4.70
2018-02-10T20:36:59.733Z,4.70
2018-02-10T20:39:27.701Z,4.60
2018-02-10T20:41:55.311Z,4.70
2018-02-10T20:44:22.884Z,4.60
2018-02-10T20:46:51.224Z,4.60
2018-02-10T20:49:18.852Z,4.60
2018-02-10T20:51:46.442Z,4.60
2018-02-10T20:54:14.072Z,4.60
2018-02-10T20:56:41.655Z,4.60
2018-02-10T20:59:09.184Z,4.60
2018-02-10T21:01:37.499Z,4.60
2018-02-10T21:04:05.151Z,4.60
2018-02-10T21:06:32.688Z,4.60
2018-02-10T21:09:00.994Z,4.60
2018-02-10T21:11:28.674Z,4.60
2018-02-10T21:13:56.272Z,4.60
2018-02-10T21:16:24.073Z,4.60
2018-02-10T21:18:51.625Z,4.60
2018-02-10T21:21:19.956Z,4.60
2018-02-10T21:23:47.755Z,4.60
2018-02-10T21:26:15.368Z,4.60
2018-02-10T21:28:42.894Z,4.60
2018-02-10T21:31:10.569Z,4.60
2018-02-10T21:33:38.507Z,4.60
2018-02-10T21:36:06.169Z,4.60
2018-02-10T21:38:33.699Z,4.60
2018-02-10T21:41:01.251Z,4.50
2018-02-10T21:43:28.772Z,4.60
2018-02-10T21:45:57.083Z,4.60
2018-02-10T21:48:24.916Z,4.50
2018-02-10T21:50:52.463Z,4.50
2018-02-10T21:53:20.752Z,4.50
2018-02-10T21:55:49.066Z,4.60
2018-02-10T21:58:16.598Z,4.50
2018-02-10T22:00:46.324Z,4.60
2018-02-10T22:03:13.944Z,4.60
2018-02-10T22:05:41.509Z,4.50
2018-02-10T22:08:09.804Z,4.50
2018-02-10T22:10:38.179Z,4.50
2018-02-10T22:13:05.988Z,4.50
2018-02-10T22:15:34.518Z,4.50
2018-02-10T22:18:02.841Z,4.50
2018-02-10T22:20:30.360Z,4.50
2018-02-10T22:22:58.777Z,4.40
2018-02-10T22:25:27.065Z,4.40
2018-02-10T22:27:54.665Z,4.40
2018-02-10T22:30:22.983Z,4.50
2018-02-10T22:32:50.527Z,4.40
2018-02-10T22:35:18.836Z,4.50
2018-02-10T22:37:46.379Z,4.40
2018-02-10T22:40:13.915Z,4.40
2018-02-10T22:42:41.459Z,4.40
2018-02-10T22:45:10.061Z,4.40
2018-02-10T22:47:38.378Z,4.40
2018-02-10T22:50:05.911Z,4.40
2018-02-10T22:52:34.236Z,4.40
2018-02-10T22:55:01.798Z,4.40
2018-02-10T22:57:29.343Z,4.40
2018-02-10T22:59:56.871Z,4.40
2018-02-10T23:02:25.207Z,4.40
2018-02-10T23:04:52.732Z,4.40
2018-02-10T23:07:20.279Z,4.40
2018-02-10T23:09:47.813Z,4.40
2018-02-10T23:12:15.369Z,4.40
2018-02-10T23:14:42.892Z,4.40
2018-02-10T23:17:10.437Z,4.40
2018-02-10T23:19:37.965Z,4.40
2018-02-10T23:22:06.304Z,4.30
2018-02-10T23:24:33.834Z,4.30
2018-02-10T23:27:01.376Z,4.30
2018-02-10T23:29:29.669Z,4.30
2018-02-10T23:31:57.223Z,4.30
2018-02-10T23:34:24.748Z,4.30
2018-02-10T23:36:52.300Z,4.30
2018-02-10T23:39:19.823Z,4.30
2018-02-10T23:41:47.380Z,4.30
2018-02-10T23:44:14.913Z,4.30
2018-02-10T23:46:42.481Z,4.30
2018-02-10T23:49:10.013Z,4.30
2018-02-10T23:51:38.344Z,4.30
2018-02-10T23:54:05.866Z,4.20
2018-02-10T23:56:34.187Z,4.20
2018-02-10T23:59:01.708Z,4.20
